Time;durP1;ratioP1;P1;durP2;ratioP2;P2;SDS_P1;SDS_P2;PMS_P1;PMS_P2;Temp;Humidity;BMP_temperature;BMP_pressure;BME280_temperature;BME280_humidity;BME280_pressure;Samples;Min_cycle;Max_cycle;Signal;HPM_P1;HPM_P2
2022/02/04 00:09:22;;;;;;;7.07;4.13;;;6.20;99.90;;;6.98;100.00;97969.22;5055052;28;20460;-80
2022/02/04 00:20:27;;;;;;;6.23;4.70;;;6.20;99.90;;;6.97;100.00;97964.22;5055340;28;20448;-81
2022/02/04 00:28:46;;;;;;;6.93;4.70;;;6.30;99.90;;;6.95;100.00;97977.34;5047191;28;20453;-81
2022/02/04 00:31:33;;;;;;;6.60;4.73;;;6.30;99.90;;;6.92;100.00;97977.69;5052718;28;20452;-80
2022/02/04 00:34:06;;;;;;;11.70;5.43;;;6.30;99.90;;;6.91;100.00;97973.47;5052924;28;20510;-81
2022/02/04 00:36:44;;;;;;;6.80;4.70;;;6.30;99.90;;;6.92;100.00;97977.69;5052944;28;20522;-80
2022/02/04 00:39:20;;;;;;;10.83;4.73;;;6.20;99.90;;;6.91;100.00;97985.63;5052996;28;20991;-81
2022/02/04 00:41:50;;;;;;;8.70;5.33;;;6.20;99.90;;;6.87;100.00;97981.78;5054928;28;20582;-81
2022/02/04 00:44:23;;;;;;;8.47;6.07;;;6.20;99.90;;;6.83;100.00;97983.88;5052723;28;20455;-80
2022/02/04 00:47:03;;;;;;;11.30;5.53;;;6.20;99.90;;;6.84;100.00;97982.06;5051547;28;20526;-80
2022/02/04 00:49:47;;;;;;;10.27;6.00;;;6.10;99.90;;;6.85;100.00;97981.09;5051437;28;20444;-80
2022/02/04 00:52:22;;;;;;;7.20;4.97;;;6.10;99.90;;;6.87;100.00;97984.38;5051608;28;20542;-80
2022/02/04 00:54:57;;;;;;;7.93;5.93;;;6.20;99.90;;;6.85;100.00;97983.72;5054314;28;20561;-81
2022/02/04 00:57:44;;;;;;;9.60;5.87;;;6.20;99.90;;;6.86;100.00;97983.56;5052969;28;20913;-80
2022/02/04 01:28:24;;;;;;;12.23;7.13;;;6.10;99.90;;;6.80;100.00;97983.41;4994193;28;21555;-80
2022/02/04 01:30:54;;;;;;;12.20;7.10;;;6.00;99.90;;;6.81;100.00;97990.22;5040113;28;20896;-80
2022/02/04 01:33:24;;;;;;;9.67;6.53;;;6.20;99.90;;;6.80;100.00;97978.22;5050426;28;20448;-80
2022/02/04 01:35:55;;;;;;;11.10;6.60;;;6.30;99.90;;;6.79;100.00;97993.00;5051266;28;20609;-80
2022/02/04 01:38:29;;;;;;;10.30;6.87;;;6.10;99.90;;;6.77;100.00;97988.94;5047358;28;20867;-81
2022/02/04 01:41:00;;;;;;;14.27;8.10;;;6.10;99.90;;;6.79;100.00;97973.97;5048144;28;20445;-80
2022/02/04 01:43:30;;;;;;;15.70;7.60;;;6.20;99.90;;;6.79;100.00;97981.78;5049976;28;20535;-80
2022/02/04 01:46:04;;;;;;;11.43;7.27;;;6.10;99.90;;;6.78;100.00;97974.94;5049160;28;20460;-80
2022/02/04 01:48:36;;;;;;;12.57;8.00;;;6.10;99.90;;;6.80;100.00;97978.22;5048662;28;20449;-80
2022/02/04 01:51:10;;;;;;;16.07;8.23;;;6.20;99.90;;;6.78;100.00;97970.56;5047986;28;20434;-81
2022/02/04 01:53:39;;;;;;;9.43;6.53;;;6.20;99.90;;;6.76;100.00;97982.94;5049140;28;20451;-80
2022/02/04 01:56:15;;;;;;;10.93;6.57;;;6.10;99.90;;;6.79;100.00;97981.78;5048323;28;20483;-81
2022/02/04 01:58:44;;;;;;;12.03;8.47;;;6.10;99.90;;;6.80;100.00;97975.63;5049591;28;20490;-80
2022/02/04 02:01:15;;;;;;;12.03;7.03;;;6.10;99.90;;;6.80;100.00;97967.81;5049854;28;20485;-80
2022/02/04 02:03:46;;;;;;;10.63;7.27;;;6.20;99.90;;;6.80;100.00;97957.44;5051333;28;20555;-80
2022/02/04 02:06:35;;;;;;;11.50;7.00;;;6.20;99.90;;;6.76;100.00;97943.94;5052354;28;20447;-81
2022/02/04 02:09:05;;;;;;;9.13;6.87;;;6.30;99.90;;;6.75;100.00;97944.91;5052648;28;20954;-80
2022/02/04 02:11:35;;;;;;;12.50;6.93;;;6.20;99.90;;;6.76;100.00;97956.13;5051568;28;20506;-80
2022/02/04 02:14:09;;;;;;;11.67;6.73;;;6.30;99.90;;;6.74;100.00;97947.66;5050320;28;20989;-81
2022/02/04 02:33:55;;;;;;;9.10;6.03;;;6.20;99.90;;;6.72;100.00;97954.81;5051546;28;20456;-80
2022/02/04 02:45:22;;;;;;;8.60;5.70;;;6.10;99.90;;;6.72;100.00;97947.84;5046814;28;20440;-80
2022/02/04 02:48:09;;;;;;;8.87;6.03;;;6.20;99.90;;;6.72;100.00;97947.03;5050102;28;20449;-80
2022/02/04 02:51:01;;;;;;;10.70;5.80;;;6.20;99.90;;;6.73;100.00;97946.06;5049198;28;20801;-81
2022/02/04 02:53:53;;;;;;;8.70;6.27;;;6.10;99.90;;;6.70;100.00;97944.59;5052631;28;20464;-81
2022/02/04 02:59:10;;;;;;;7.23;5.20;;;6.10;99.90;;;6.70;100.00;97949.00;5046757;28;20464;-81
2022/02/04 03:01:44;;;;;;;6.47;4.43;;;6.10;99.90;;;6.73;100.00;97953.84;5050387;28;20443;-81
2022/02/04 03:04:15;;;;;;;9.37;6.10;;;6.10;99.90;;;6.72;100.00;97954.81;5050493;28;20556;-80
2022/02/04 03:06:48;;;;;;;8.67;4.90;;;6.10;99.90;;;6.71;100.00;97951.41;5050458;28;20453;-80
2022/02/04 03:09:19;;;;;;;6.80;5.07;;;6.20;99.90;;;6.74;100.00;97963.25;5051377;28;20445;-81
2022/02/04 03:11:50;;;;;;;7.07;5.43;;;6.10;99.90;;;6.75;100.00;97960.50;5049351;28;20457;-81
2022/02/04 03:14:19;;;;;;;7.73;5.13;;;6.20;99.90;;;6.79;100.00;97968.78;5050208;28;20551;-81
2022/02/04 03:16:49;;;;;;;9.00;5.20;;;6.20;99.90;;;6.76;100.00;97967.34;5047715;28;20445;-80
2022/02/04 03:19:20;;;;;;;6.47;4.60;;;6.20;99.90;;;6.78;100.00;97970.56;5046879;28;20456;-80
2022/02/04 03:21:51;;;;;;;9.27;5.23;;;6.20;99.90;;;6.77;100.00;97962.94;5043800;28;20507;-81
2022/02/04 03:24:22;;;;;;;12.33;5.00;;;6.20;99.90;;;6.76;100.00;97956.13;5047277;28;20519;-80
2022/02/04 03:26:57;;;;;;;7.87;4.60;;;6.10;99.90;;;6.72;100.00;97945.25;5046691;28;20443;-81
2022/02/04 03:29:32;;;;;;;6.90;4.50;;;6.00;99.90;;;6.71;100.00;97948.00;5049439;28;20509;-81
2022/02/04 03:32:06;;;;;;;8.10;4.80;;;5.90;99.90;;;6.63;100.00;97948.03;5049912;28;20451;-81
2022/02/04 03:34:36;;;;;;;7.83;5.00;;;5.80;99.90;;;6.66;100.00;97955.50;5047147;28;20488;-81
2022/02/04 03:37:06;;;;;;;7.10;4.70;;;5.90;99.90;;;6.69;100.00;97955.16;5048242;28;20989;-81
2022/02/04 03:39:36;;;;;;;6.50;4.10;;;6.00;99.90;;;6.70;100.00;97952.38;5048130;28;20445;-81
2022/02/04 03:42:09;;;;;;;8.60;4.80;;;6.00;99.90;;;6.72;100.00;97953.03;5046867;28;20453;-80
2022/02/04 03:44:39;;;;;;;6.23;4.50;;;6.10;99.90;;;6.73;100.00;97956.47;5045181;28;20477;-81
2022/02/04 03:47:09;;;;;;;7.03;5.00;;;5.90;99.90;;;6.73;100.00;97959.06;5046159;28;20523;-81
2022/02/04 03:49:39;;;;;;;7.40;4.90;;;5.90;99.90;;;6.73;100.00;97959.06;5048997;28;20449;-81
2022/02/04 03:52:09;;;;;;;7.57;5.23;;;6.00;99.90;;;6.72;100.00;97949.63;5047662;28;20464;-80
2022/02/04 03:54:38;;;;;;;6.83;4.70;;;6.00;99.90;;;6.74;100.00;97953.69;5048337;28;20526;-80
2022/02/04 03:57:09;;;;;;;7.43;5.37;;;6.10;99.90;;;6.78;100.00;97959.34;5048584;28;20481;-80
2022/02/04 03:59:39;;;;;;;8.23;5.50;;;6.20;99.90;;;6.72;100.00;97947.03;5050399;28;20462;-81
2022/02/04 04:02:08;;;;;;;8.77;5.70;;;6.20;99.90;;;6.73;100.00;97953.84;5051382;28;20479;-80
2022/02/04 04:04:37;;;;;;;6.63;5.03;;;6.20;99.90;;;6.75;100.00;97960.50;5049621;28;20936;-81
2022/02/04 04:07:06;;;;;;;8.90;5.20;;;6.30;99.90;;;6.69;100.00;97952.56;5051716;28;20460;-81
2022/02/04 04:09:40;;;;;;;7.13;4.93;;;6.20;99.90;;;6.70;100.00;97959.38;5051137;28;20553;-81
2022/02/04 04:12:11;;;;;;;6.97;5.10;;;6.30;99.90;;;6.68;100.00;97969.13;5051464;28;20476;-80
2022/02/04 04:14:42;;;;;;;6.50;4.60;;;6.20;99.90;;;6.63;100.00;97968.81;5050803;28;20456;-80
2022/02/04 04:17:12;;;;;;;8.90;5.27;;;6.20;99.90;;;6.63;100.00;97961.81;5050682;28;20460;-81
2022/02/04 04:19:42;;;;;;;6.57;4.60;;;6.20;99.90;;;6.59;100.00;97961.31;5049233;28;20537;-81
2022/02/04 04:22:12;;;;;;;5.37;4.20;;;6.10;99.90;;;6.63;100.00;97968.81;5052973;28;20448;-80
2022/02/04 04:24:42;;;;;;;7.43;4.43;;;6.10;99.90;;;6.66;100.00;97966.69;5052407;28;20934;-80
2022/02/04 04:27:15;;;;;;;6.57;4.90;;;6.20;99.90;;;6.68;100.00;97966.53;5054149;28;20482;-80
2022/02/04 04:29:47;;;;;;;9.60;5.67;;;6.10;99.90;;;6.69;100.00;97955.16;5055583;28;21049;-81
2022/02/04 04:32:17;;;;;;;6.83;4.53;;;6.20;99.90;;;6.69;100.00;97962.97;5052146;28;20583;-81
2022/02/04 04:34:47;;;;;;;7.00;4.00;;;6.20;99.90;;;6.64;100.00;97962.63;5052562;28;20552;-81
2022/02/04 04:37:16;;;;;;;5.40;4.43;;;6.20;99.90;;;6.65;100.00;97959.06;5053554;28;20440;-81
2022/02/04 04:39:56;;;;;;;7.67;4.77;;;6.20;99.90;;;6.66;100.00;97960.69;5054367;28;20479;-81
2022/02/04 04:42:47;;;;;;;8.90;5.50;;;6.20;99.90;;;6.67;100.00;97967.50;5055706;28;20449;-80
2022/02/04 05:29:57;;;;;;;8.63;5.00;;;6.00;99.90;;;6.69;100.00;97955.16;4956063;28;20501;-80
2022/02/04 05:32:30;;;;;;;9.33;5.43;;;6.10;99.90;;;6.71;100.00;97963.59;5028026;28;20452;-80
2022/02/04 05:35:06;;;;;;;6.87;5.17;;;6.10;99.90;;;6.73;100.00;97952.06;5050512;28;20464;-80
2022/02/04 05:37:41;;;;;;;9.43;6.27;;;6.10;99.90;;;6.75;100.00;97949.28;5050460;28;20462;-80
2022/02/04 05:40:17;;;;;;;9.50;6.10;;;6.10;99.90;;;6.77;100.00;97950.75;5049727;28;20451;-80
2022/02/04 05:42:51;;;;;;;8.30;5.20;;;6.20;99.90;;;6.77;100.00;97948.16;5041642;28;20476;-81
2022/02/04 05:45:24;;;;;;;7.07;4.80;;;6.10;99.90;;;6.72;100.00;97950.44;5046516;28;20509;-82
2022/02/04 05:48:00;;;;;;;6.10;4.60;;;6.10;99.90;;;6.77;100.00;97947.38;5040361;28;20467;-81
2022/02/04 05:50:37;;;;;;;6.23;4.93;;;6.10;99.90;;;6.79;100.00;97950.59;5047156;28;20455;-81
2022/02/04 05:53:19;;;;;;;6.97;4.23;;;6.10;99.90;;;6.80;100.00;97941.84;5047815;28;20460;-81
2022/02/04 05:56:08;;;;;;;7.03;4.53;;;6.10;99.90;;;6.82;100.00;97940.69;5047193;28;20547;-81
2022/02/04 05:59:01;;;;;;;7.90;4.90;;;6.20;99.90;;;6.81;100.00;97938.22;5044641;28;20461;-81
2022/02/04 06:01:41;;;;;;;5.43;4.20;;;6.20;99.90;;;6.81;100.00;97935.63;5050543;28;20869;-81
2022/02/04 06:04:25;;;;;;;8.07;5.30;;;6.20;99.90;;;6.81;100.00;97938.22;5049721;28;20508;-81
2022/02/04 06:23:59;;;;;;;11.90;7.20;;;6.40;99.90;;;6.76;100.00;97930.97;5042984;28;20482;-81
2022/02/04 06:26:29;;;;;;;11.70;6.97;;;6.30;99.90;;;6.77;100.00;97945.53;5045905;28;20464;-81
2022/02/04 06:29:04;;;;;;;14.60;7.90;;;6.30;99.90;;;6.80;100.00;97947.03;5047823;28;20483;-81
2022/02/04 06:31:36;;;;;;;13.30;7.20;;;6.30;99.90;;;6.81;100.00;97946.03;5043528;28;20856;-81
2022/02/04 06:34:07;;;;;;;10.60;7.53;;;6.30;99.90;;;6.84;100.00;97943.09;5043992;28;20488;-81
2022/02/04 06:36:37;;;;;;;11.90;8.03;;;6.30;99.90;;;6.83;100.00;97937.13;5041669;28;21206;-81
2022/02/04 06:39:08;;;;;;;19.90;7.87;;;6.30;99.90;;;6.84;100.00;97937.91;5041595;28;20469;-81
2022/02/04 06:41:39;;;;;;;11.07;7.30;;;6.40;99.90;;;6.83;100.00;97933.69;5045569;28;20936;-82
2022/02/04 06:44:10;;;;;;;16.43;8.33;;;6.40;99.90;;;6.82;100.00;97945.06;5043580;28;20475;-82
2022/02/04 06:46:41;;;;;;;11.97;7.77;;;6.30;99.90;;;6.83;100.00;97944.09;5038099;28;20534;-81
2022/02/04 06:49:12;;;;;;;11.53;6.57;;;6.40;99.90;;;6.83;100.00;97939.72;5042129;28;21176;-81
2022/02/04 06:51:46;;;;;;;11.53;7.30;;;6.20;99.90;;;6.86;100.00;97941.16;5045793;28;20958;-82
2022/02/04 06:54:16;;;;;;;12.50;7.73;;;6.30;99.90;;;6.86;100.00;97941.16;5041911;28;20468;-81
2022/02/04 06:56:54;;;;;;;9.70;6.17;;;6.30;99.90;;;6.86;100.00;97941.16;5043378;28;20488;-81
2022/02/04 06:59:24;;;;;;;10.40;6.83;;;6.30;99.90;;;6.89;100.00;97940.81;5043959;28;20468;-82
2022/02/04 07:01:54;;;;;;;9.23;5.70;;;6.30;99.90;;;6.91;100.00;97949.25;5043464;28;20480;-82
2022/02/04 07:04:28;;;;;;;10.60;6.10;;;6.40;99.90;;;6.90;100.00;97952.84;5042818;28;20907;-82
2022/02/04 07:07:02;;;;;;;9.47;5.57;;;6.40;99.90;;;6.90;100.00;97948.47;5039382;28;20510;-82
2022/02/04 07:09:43;;;;;;;8.53;5.17;;;6.40;99.90;;;6.87;100.00;97948.00;5043539;28;21001;-81
2022/02/04 07:12:26;;;;;;;10.80;5.43;;;6.30;99.90;;;6.86;100.00;97961.94;5043106;28;21043;-82
2022/02/04 07:17:55;;;;;;;7.20;4.03;;;6.40;99.90;;;6.90;100.00;97964.06;5043208;28;20978;-82
2022/02/04 07:20:23;;;;;;;6.60;4.23;;;6.30;99.90;;;6.92;100.00;97969.91;5044883;28;20564;-81
2022/02/04 07:22:56;;;;;;;5.47;4.17;;;6.40;99.90;;;6.95;100.00;97966.16;5045518;28;20468;-81
2022/02/04 07:25:26;;;;;;;8.50;4.00;;;6.40;99.90;;;6.96;100.00;97962.56;5045788;28;20496;-82
2022/02/04 07:27:59;;;;;;;4.13;3.53;;;6.30;99.90;;;6.95;100.00;97963.53;5043286;28;20489;-81
2022/02/04 07:30:43;;;;;;;4.83;4.10;;;6.30;99.90;;;6.96;100.00;97968.59;5044579;28;20467;-82
2022/02/04 07:33:17;;;;;;;4.50;3.20;;;6.30;99.90;;;6.95;100.00;97960.94;5045754;28;20461;-81
2022/02/04 07:38:51;;;;;;;5.53;3.10;;;6.40;99.90;;;6.98;100.00;97952.81;5044417;28;20475;-81
2022/02/04 07:41:20;;;;;;;4.47;3.03;;;6.50;99.90;;;6.97;100.00;97954.63;5047552;28;20501;-82
2022/02/04 07:43:50;;;;;;;3.80;3.00;;;6.50;99.90;;;6.96;100.00;97949.56;5042419;28;20969;-81
2022/02/04 07:46:23;;;;;;;4.60;3.30;;;6.50;99.90;;;6.96;100.00;97949.56;5043749;28;20489;-81
2022/02/04 07:48:52;;;;;;;3.63;3.20;;;6.50;99.90;;;6.96;100.00;97941.78;5045164;28;20533;-81
2022/02/04 07:51:24;;;;;;;3.90;3.00;;;6.40;99.90;;;6.95;100.00;97933.16;5043939;28;20488;-82
2022/02/04 07:53:57;;;;;;;3.20;2.60;;;6.40;99.90;;;6.96;100.00;97928.78;5044322;28;20831;-82
2022/02/04 07:56:27;;;;;;;4.23;2.73;;;6.40;99.90;;;6.97;100.00;97927.81;5041199;28;20486;-82
2022/02/04 07:59:00;;;;;;;3.83;3.37;;;6.40;99.90;;;6.96;100.00;97926.19;5047008;28;20474;-81
2022/02/04 08:01:33;;;;;;;37.40;18.37;;;6.40;99.90;;;6.96;100.00;97916.59;5050108;28;20464;-82
2022/02/04 08:04:11;;;;;;;5.10;3.50;;;6.50;99.90;;;6.89;100.00;97914.84;5050297;28;20499;-81
2022/02/04 08:06:46;;;;;;;3.23;2.87;;;6.30;99.90;;;6.92;100.00;97917.09;5045252;28;20460;-82
2022/02/04 08:09:25;;;;;;;5.07;3.23;;;6.40;99.90;;;6.90;100.00;97911.25;5044971;28;20983;-82
2022/02/04 08:12:15;;;;;;;3.30;2.80;;;6.40;99.90;;;6.90;100.00;97911.25;5042117;28;20987;-82
2022/02/04 08:15:09;;;;;;;4.60;3.00;;;6.40;99.90;;;6.92;100.00;97909.31;5044249;28;20487;-82
2022/02/04 08:18:21;;;;;;;3.20;2.50;;;6.40;99.90;;;6.95;100.00;97908.97;5048060;28;20475;-82
2022/02/04 08:26:48;;;;;;;3.60;2.50;;;6.40;99.90;;;7.00;100.00;97912.69;5050988;28;20863;-81
2022/02/04 08:29:47;;;;;;;2.90;2.20;;;6.40;99.90;;;7.05;100.00;97912.19;5044862;28;20559;-82
2022/02/04 08:32:45;;;;;;;3.00;2.70;;;6.40;99.90;;;7.05;100.00;97915.59;5045905;28;20468;-81
2022/02/04 08:47:46;;;;;;;1.80;1.70;;;6.50;99.90;;;7.01;100.00;97918.72;5049440;28;20465;-81
2022/02/04 08:53:29;;;;;;;2.40;2.20;;;6.40;99.90;;;7.00;100.00;97914.47;5046164;28;20452;-81
2022/02/04 08:55:59;;;;;;;1.80;1.70;;;6.40;99.90;;;7.05;100.00;97915.59;5047675;28;20556;-84
2022/02/04 08:58:34;;;;;;;2.33;1.70;;;6.50;99.90;;;7.05;100.00;97910.38;5046099;28;20460;-83
2022/02/04 09:01:08;;;;;;;4.70;2.00;;;6.50;99.90;;;7.08;100.00;97914.44;5044592;28;21044;-81
2022/02/04 09:03:50;;;;;;;2.80;1.87;;;6.50;99.90;;;7.08;100.00;97919.63;5044267;28;20871;-82
2022/02/04 09:06:24;;;;;;;2.03;1.70;;;6.60;99.90;;;7.04;100.00;97918.38;5043754;28;21092;-84
2022/02/04 09:08:57;;;;;;;1.70;1.60;;;6.50;99.90;;;7.03;100.00;97917.56;5046244;28;20464;-83
2022/02/04 09:11:39;;;;;;;1.67;1.57;;;6.50;99.90;;;7.04;100.00;97919.19;5044312;28;20465;-84
2022/02/04 09:17:23;;;;;;;1.83;1.30;;;6.50;99.90;;;7.08;100.00;97917.03;5046414;28;20580;-84
2022/02/04 09:20:02;;;;;;;2.40;1.30;;;6.60;99.90;;;7.04;100.00;97910.56;5043389;28;20578;-84
2022/02/04 09:22:43;;;;;;;1.70;1.60;;;6.60;99.90;;;7.06;100.00;97911.19;5044696;28;20511;-84
2022/02/04 09:25:13;;;;;;;1.60;1.50;;;6.60;99.90;;;7.04;100.00;97902.78;5044332;28;20483;-83
2022/02/04 09:27:42;;;;;;;1.70;1.57;;;6.60;99.90;;;7.06;100.00;97908.59;5042400;28;20582;-84
2022/02/04 09:30:17;;;;;;;2.70;2.20;;;6.60;99.90;;;7.06;100.00;97901.63;5042654;28;20867;-85
2022/02/04 09:32:49;;;;;;;4.57;2.10;;;6.60;99.90;;;7.07;100.00;97900.66;5042157;28;21012;-83
2022/02/04 09:35:22;;;;;;;1.97;1.77;;;6.50;99.90;;;7.12;100.00;97899.31;5042802;28;20997;-82
2022/02/04 09:37:54;;;;;;;2.27;2.00;;;6.60;99.90;;;7.13;100.00;97900.94;5040119;28;20468;-82
2022/02/04 09:40:26;;;;;;;2.10;1.90;;;6.60;99.90;;;7.12;100.00;97899.31;5042351;28;20472;-82
2022/02/04 09:42:57;;;;;;;11.60;2.57;;;6.50;99.90;;;7.09;100.00;97893.47;5044324;28;20506;-83
2022/02/04 09:45:30;;;;;;;5.13;1.90;;;6.50;99.90;;;7.10;100.00;97886.50;5043950;28;20506;-82
2022/02/04 09:48:03;;;;;;;3.00;2.10;;;6.50;99.90;;;7.08;100.00;97891.03;5045648;28;20470;-82
2022/02/04 09:50:42;;;;;;;2.67;2.43;;;6.60;99.90;;;7.05;100.00;97878.38;5047780;28;20492;-82
2022/02/04 10:07:56;;;;;;;2.07;1.87;;;6.70;99.90;;;7.16;100.00;97870.22;5038336;28;20500;-85
2022/02/04 10:11:02;;;;;;;2.30;1.93;;;6.70;99.90;;;7.14;100.00;97866.97;5051939;28;20489;-84
2022/02/04 10:13:52;;;;;;;2.33;1.80;;;6.70;99.90;;;7.21;100.00;97862.72;5049991;28;20453;-84
2022/02/04 10:16:52;;;;;;;2.50;1.70;;;6.80;99.90;;;7.21;100.00;97852.31;5050039;28;21024;-82
2022/02/04 10:19:28;;;;;;;3.17;1.90;;;6.70;99.90;;;7.18;100.00;97862.25;5047159;28;20441;-82
2022/02/04 10:22:00;;;;;;;5.03;2.10;;;6.70;99.90;;;7.20;100.00;97852.47;5049190;28;21151;-82
2022/02/04 10:24:33;;;;;;;2.20;1.80;;;6.70;99.90;;;7.21;100.00;97860.13;5049844;28;20876;-82
2022/02/04 10:27:17;;;;;;;1.87;1.77;;;6.70;99.90;;;7.27;100.00;97850.81;5047740;28;20569;-83
2022/02/04 10:29:54;;;;;;;2.23;1.70;;;6.70;99.90;;;7.27;100.00;97856.84;5047493;28;20465;-83
2022/02/04 10:32:46;;;;;;;5.03;2.37;;;6.70;99.90;;;7.25;100.00;97847.59;5045914;28;20832;-83
2022/02/04 10:35:21;;;;;;;2.23;1.80;;;6.70;99.90;;;7.24;100.00;97854.56;5047755;28;20992;-83
2022/02/04 10:38:09;;;;;;;17.00;4.97;;;6.80;99.90;;;7.25;100.00;97861.41;5050721;28;20528;-83
2022/02/04 10:43:46;;;;;;;7.60;1.37;;;6.80;99.90;;;7.21;100.00;97857.53;5046781;28;21033;-82
2022/02/04 10:46:28;;;;;;;6.30;2.83;;;6.80;99.90;;;7.24;100.00;97851.97;5050416;28;20518;-81
2022/02/04 10:49:28;;;;;;;1.40;1.30;;;6.80;99.90;;;7.27;100.00;97845.63;5048236;28;20804;-82
2022/02/04 10:52:31;;;;;;;1.60;1.50;;;6.80;99.90;;;7.27;100.00;97841.22;5046619;28;21001;-82
2022/02/04 10:55:35;;;;;;;1.97;1.57;;;6.80;99.90;;;7.22;100.00;97853.91;5047123;28;20464;-81
2022/02/04 10:58:24;;;;;;;2.00;1.43;;;6.80;99.90;;;7.20;100.00;97848.09;5047271;28;20547;-82
2022/02/04 11:01:09;;;;;;;2.20;1.57;;;6.60;99.90;;;7.22;100.00;97848.72;5049587;28;20472;-82
2022/02/04 11:03:47;;;;;;;2.77;1.60;;;6.80;99.90;;;7.23;100.00;97839.94;5045599;28;20496;-82
2022/02/04 11:06:28;;;;;;;2.17;1.97;;;6.70;99.90;;;7.23;100.00;97839.94;5049983;28;21095;-82
2022/02/04 11:09:10;;;;;;;3.33;1.93;;;6.80;99.90;;;7.24;100.00;97836.38;5048688;28;20449;-81
2022/02/04 11:31:22;;;;;;;2.40;2.20;;;6.80;99.90;;;7.22;100.00;97781.13;5048661;28;20451;-82
2022/02/04 11:34:22;;;;;;;4.40;2.33;;;6.80;99.90;;;7.23;100.00;97777.53;5053493;28;20480;-81
2022/02/04 11:52:37;;;;;;;3.80;1.80;;;6.80;99.90;;;7.35;100.00;97760.56;5054286;28;20809;-81
2022/02/04 11:55:33;;;;;;;1.80;1.70;;;6.80;99.90;;;7.35;100.00;97750.16;5055492;28;20474;-82
2022/02/04 11:58:11;;;;;;;2.17;1.87;;;6.90;99.90;;;7.33;100.00;97749.50;5051937;28;20785;-82
2022/02/04 12:00:43;;;;;;;2.37;1.90;;;6.90;99.90;;;7.33;100.00;97749.50;5053191;28;20971;-82
2022/02/04 12:03:35;;;;;;;1.90;1.77;;;6.90;99.90;;;7.33;100.00;97739.09;5056762;28;20445;-82
2022/02/04 12:06:06;;;;;;;1.50;1.40;;;6.90;99.90;;;7.35;100.00;97738.94;5054623;28;21017;-82
2022/02/04 12:08:36;;;;;;;3.63;1.73;;;6.90;99.90;;;7.34;100.00;97726.91;5055873;28;20667;-81
2022/02/04 12:11:18;;;;;;;1.20;1.10;;;6.90;99.90;;;7.30;100.00;97716.06;5054303;28;21187;-82
2022/02/04 12:14:14;;;;;;;1.47;1.37;;;6.90;99.90;;;7.31;100.00;97722.06;5055148;28;20969;-81
2022/02/04 12:17:08;;;;;;;1.60;1.50;;;6.80;99.90;;;7.35;100.00;97713.75;5052116;28;20537;-82
2022/02/04 12:19:44;;;;;;;1.60;1.30;;;6.90;99.90;;;7.36;100.00;97704.94;5054496;28;20458;-81
2022/02/04 12:22:14;;;;;;;6.43;1.53;;;6.90;99.90;;;7.31;100.00;97704.69;5054566;28;20446;-82
2022/02/04 12:24:48;;;;;;;16.63;2.60;;;6.90;99.90;;;7.31;100.00;97709.88;5053799;28;20971;-82
2022/02/04 12:27:37;;;;;;;1.63;1.27;;;6.80;99.90;;;7.32;100.00;97703.72;5053628;28;21020;-82
2022/02/04 12:30:46;;;;;;;1.17;1.07;;;6.80;99.90;;;7.37;100.00;97706.56;5052662;28;20901;-82
2022/02/04 12:33:16;;;;;;;0.90;0.90;;;6.90;99.90;;;7.34;100.00;97698.31;5053721;28;20439;-82
2022/02/04 12:35:46;;;;;;;1.10;1.00;;;6.90;99.90;;;7.29;100.00;97703.25;5055157;28;20784;-82
2022/02/04 12:38:18;;;;;;;1.20;1.10;;;6.80;99.90;;;7.31;100.00;97702.06;5054913;28;21095;-82
2022/02/04 12:40:59;;;;;;;3.97;1.53;;;6.80;99.90;;;7.30;100.00;97682.25;5046166;28;20460;-82
2022/02/04 12:43:34;;;;;;;4.30;1.30;;;6.90;99.90;;;7.32;100.00;97677.69;5049764;28;20473;-81
2022/02/04 12:46:07;;;;;;;4.90;1.60;;;6.90;99.90;;;7.33;100.00;97670.69;5044281;28;20500;-81
2022/02/04 12:48:39;;;;;;;1.20;1.10;;;6.90;99.90;;;7.31;100.00;97665.66;5049181;28;20492;-86
2022/02/04 12:51:21;;;;;;;36.60;8.57;;;6.80;99.90;;;7.37;100.00;97653.75;5047664;28;20469;-82
2022/02/04 12:53:52;;;;;;;1.60;1.50;;;6.80;99.90;;;7.38;100.00;97663.97;5047783;28;20487;-82
2022/02/04 12:56:35;;;;;;;0.90;0.90;;;6.90;99.90;;;7.38;100.00;97656.19;5049239;28;20466;-82
2022/02/04 13:02:25;;;;;;;7.40;3.40;;;6.90;99.90;;;7.44;100.00;97654.66;5032000;28;21582;-81
2022/02/04 13:07:50;;;;;;;20.37;2.60;;;6.90;99.90;;;7.41;100.00;97642.00;5047447;28;20497;-83
2022/02/04 13:10:24;;;;;;;2.70;1.50;;;6.90;99.90;;;7.44;100.00;97633.84;5049139;28;20510;-82
2022/02/04 13:13:17;;;;;;;1.13;1.03;;;6.90;99.90;;;7.49;100.00;97639.34;5047592;28;20468;-82
2022/02/04 13:15:49;;;;;;;1.30;1.20;;;7.00;99.90;;;7.41;100.00;97635.00;5042533;28;20475;-82
2022/02/04 13:18:23;;;;;;;1.47;1.37;;;7.00;99.90;;;7.39;100.00;97623.97;5052305;28;20472;-82
2022/02/04 13:20:58;;;;;;;1.60;1.20;;;6.90;99.90;;;7.32;100.00;97620.47;5051838;28;20547;-82
2022/02/04 13:23:35;;;;;;;1.30;1.20;;;6.70;99.90;;;7.39;100.00;97620.59;5053141;28;20472;-82
2022/02/04 13:26:07;;;;;;;1.20;1.10;;;6.90;99.90;;;7.33;100.00;97614.28;5050246;28;20607;-81
2022/02/04 13:28:39;;;;;;;1.43;1.00;;;6.90;99.90;;;7.28;100.00;97614.00;5049355;28;20507;-82
2022/02/04 13:31:12;;;;;;;1.50;1.33;;;6.80;99.90;;;7.31;100.00;97605.84;5049497;28;20465;-82
2022/02/04 13:33:46;;;;;;;1.63;1.20;;;6.80;99.90;;;7.30;100.00;97599.03;5050872;28;20468;-82
2022/02/04 13:36:25;;;;;;;3.40;1.30;;;6.80;99.90;;;7.39;100.00;97592.75;5050812;28;20523;-82
2022/02/04 13:39:09;;;;;;;4.40;1.40;;;6.90;99.90;;;7.43;100.00;97596.63;5047003;28;20476;-82
2022/02/04 13:41:56;;;;;;;1.17;1.07;;;7.00;99.90;;;7.44;100.00;97589.63;5048243;28;20462;-82
2022/02/04 13:44:37;;;;;;;1.43;1.13;;;7.00;99.90;;;7.36;100.00;97595.72;5049377;28;20461;-82
2022/02/04 13:47:25;;;;;;;2.80;1.17;;;6.80;99.90;;;7.43;100.00;97595.81;5052366;28;20483;-82
2022/02/04 13:50:08;;;;;;;3.60;2.07;;;6.90;99.90;;;7.40;100.00;97589.19;5052611;28;21015;-82
2022/02/04 13:52:57;;;;;;;6.53;1.60;;;6.90;99.90;;;7.43;100.00;97588.81;5050322;28;20470;-82
2022/02/04 13:55:55;;;;;;;2.50;1.30;;;7.00;99.90;;;7.40;100.00;97580.56;5052258;28;20458;-83
2022/02/04 13:58:38;;;;;;;2.03;1.10;;;6.90;99.90;;;7.43;100.00;97573.22;5050442;28;20455;-82
2022/02/04 14:01:15;;;;;;;1.10;1.00;;;7.00;99.90;;;7.44;100.00;97577.44;5048177;28;20551;-82
2022/02/04 14:03:50;;;;;;;1.67;1.10;;;7.00;99.90;;;7.44;100.00;97587.03;5047984;28;21004;-82
2022/02/04 14:06:28;;;;;;;1.13;1.03;;;7.00;99.90;;;7.41;100.00;97575.19;5047185;28;20463;-81
2022/02/04 14:09:01;;;;;;;1.17;0.97;;;7.00;99.90;;;7.37;100.00;97579.13;5048103;28;20980;-83
2022/02/04 14:11:38;;;;;;;152.50;67.43;;;6.90;99.90;;;7.36;100.00;97576.69;5051137;28;20999;-83
2022/02/04 14:14:10;;;;;;;3.70;1.77;;;6.80;99.90;;;7.37;100.00;97566.13;5043035;28;20988;-83
2022/02/04 14:16:42;;;;;;;1.60;1.20;;;6.90;99.90;;;7.33;100.00;97570.06;5042128;28;20456;-84
2022/02/04 14:19:11;;;;;;;1.00;0.90;;;6.90;99.90;;;7.34;100.00;97566.50;5041592;28;20476;-81
2022/02/04 14:21:42;;;;;;;1.37;1.20;;;6.90;99.90;;;7.35;100.00;97568.13;5046318;28;20530;-82
2022/02/04 14:24:14;;;;;;;1.20;1.10;;;6.90;99.90;;;7.38;100.00;97565.16;5043701;28;20814;-83
2022/02/04 14:26:47;;;;;;;1.20;1.10;;;6.90;99.90;;;7.34;100.00;97566.50;5041820;28;21088;-82
2022/02/04 14:29:23;;;;;;;1.30;1.20;;;6.80;99.90;;;7.31;100.00;97561.66;5043392;28;21112;-83
2022/02/04 14:32:00;;;;;;;1.20;1.10;;;6.80;99.90;;;7.37;100.00;97554.91;5044806;28;20465;-83
2022/02/04 14:34:53;;;;;;;1.20;1.10;;;6.90;99.90;;;7.41;100.00;97559.59;5045913;28;20568;-83
2022/02/04 14:49:37;;;;;;;2.10;0.90;;;6.90;99.90;;;7.32;100.00;97570.25;5046783;28;20492;-82
2022/02/04 14:52:27;;;;;;;1.30;1.00;;;7.00;99.90;;;7.33;100.00;97566.66;5048349;28;20472;-82
2022/02/04 15:00:43;;;;;;;1.10;0.90;;;6.90;99.90;;;7.26;100.00;97553.56;5050091;28;20953;-82
2022/02/04 15:03:22;;;;;;;1.30;1.20;;;6.80;99.90;;;7.31;100.00;97564.25;5048991;28;20457;-81
2022/02/04 15:06:03;;;;;;;1.03;0.93;;;6.80;99.90;;;7.35;100.00;97556.91;5043833;28;20468;-82
2022/02/04 15:08:54;;;;;;;8.23;3.43;;;6.90;99.90;;;7.32;100.00;97547.66;5041854;28;20623;-83
2022/02/04 15:11:31;;;;;;;1.13;1.03;;;6.90;99.90;;;7.36;100.00;97554.09;5045156;28;20473;-82
2022/02/04 15:14:03;;;;;;;0.90;0.90;;;6.90;99.90;;;7.40;100.00;97541.53;5045109;28;20460;-82